JNA242 RJAA-RKSI
Flight info
| Callsign | JNA242 |
|---|---|
| Flight time | N/A |
| Altitude | 36000 |
| Route | ENPAR Y16 SAPRA Y685 GUKDO GUKDO2E |
| Aircraft | B738/M-SDE2E3FGHIRWXY/LB1 |
Departure
| Time | 2026-05-07 14:07 |
|---|---|
| Airport | Narita International Airport (RJAA) |
Arrival
| Time | N/A |
|---|---|
| Airport | Incheon International Airport (RKSI) |
| Time | Latitude | Longitude | Altitude | Speed | Heading |
|---|---|---|---|---|---|
| 2026-05-07 13:36 | 35.75833 | 140.38647 | 144 ft | 0 kts | 14° |
| 2026-05-07 13:53 | 35.75824 | 140.38644 | 144 ft | 3 kts | 15° |
| 2026-05-07 13:53 | 35.75804 | 140.38637 | 144 ft | 3 kts | 15° |
| 2026-05-07 13:53 | 35.75784 | 140.38631 | 144 ft | 3 kts | 15° |
| 2026-05-07 13:53 | 35.75765 | 140.38624 | 144 ft | 3 kts | 13° |
| 2026-05-07 13:54 | 35.75745 | 140.38619 | 144 ft | 3 kts | 8° |
| 2026-05-07 13:54 | 35.75725 | 140.38617 | 144 ft | 3 kts | 357° |
| 2026-05-07 13:54 | 35.75706 | 140.38621 | 144 ft | 3 kts | 337° |
| 2026-05-07 13:54 | 35.75691 | 140.38632 | 144 ft | 3 kts | 297° |
| 2026-05-07 13:55 | 35.75688 | 140.38640 | 144 ft | 0 kts | 284° |
| 2026-05-07 14:00 | 35.75690 | 140.38632 | 144 ft | 6 kts | 284° |
| 2026-05-07 14:00 | 35.75746 | 140.38550 | 144 ft | 16 kts | 328° |
| 2026-05-07 14:00 | 35.75836 | 140.38483 | 143 ft | 15 kts | 329° |
| 2026-05-07 14:01 | 35.75927 | 140.38422 | 143 ft | 14 kts | 332° |
| 2026-05-07 14:01 | 35.76013 | 140.38364 | 143 ft | 14 kts | 329° |
| 2026-05-07 14:01 | 35.76094 | 140.38304 | 143 ft | 13 kts | 330° |
| 2026-05-07 14:01 | 35.76171 | 140.38248 | 142 ft | 13 kts | 328° |
| 2026-05-07 14:02 | 35.76247 | 140.38192 | 142 ft | 13 kts | 328° |
| 2026-05-07 14:02 | 35.76323 | 140.38135 | 142 ft | 13 kts | 329° |
| 2026-05-07 14:02 | 35.76400 | 140.38079 | 141 ft | 13 kts | 328° |
| 2026-05-07 14:02 | 35.76480 | 140.38020 | 141 ft | 13 kts | 332° |
| 2026-05-07 14:03 | 35.76559 | 140.37968 | 141 ft | 13 kts | 330° |
| 2026-05-07 14:03 | 35.76618 | 140.37896 | 141 ft | 12 kts | 273° |
| 2026-05-07 14:03 | 35.76624 | 140.37802 | 141 ft | 12 kts | 321° |
| 2026-05-07 14:03 | 35.76742 | 140.37717 | 140 ft | 25 kts | 329° |
| 2026-05-07 14:04 | 35.76888 | 140.37608 | 140 ft | 24 kts | 333° |
| 2026-05-07 14:04 | 35.77029 | 140.37512 | 139 ft | 23 kts | 326° |
| 2026-05-07 14:04 | 35.77080 | 140.37345 | 139 ft | 22 kts | 319° |
| 2026-05-07 14:04 | 35.77210 | 140.37250 | 138 ft | 21 kts | 328° |
| 2026-05-07 14:05 | 35.77334 | 140.37154 | 138 ft | 21 kts | 328° |
| 2026-05-07 14:05 | 35.77458 | 140.37066 | 138 ft | 20 kts | 329° |
| 2026-05-07 14:05 | 35.77482 | 140.36953 | 138 ft | 11 kts | 239° |
| 2026-05-07 14:05 | 35.77447 | 140.36876 | 138 ft | 8 kts | 239° |
| 2026-05-07 14:06 | 35.77404 | 140.36857 | 137 ft | 0 kts | 150° |
| 2026-05-07 14:06 | 35.77351 | 140.36895 | 137 ft | 35 kts | 149° |
| 2026-05-07 14:06 | 35.76916 | 140.37213 | 139 ft | 108 kts | 150° |
| 2026-05-07 14:06 | 35.76089 | 140.37817 | 212 ft | 161 kts | 148° |
| 2026-05-07 14:07 | 35.75153 | 140.38602 | 904 ft | 163 kts | 147° |
| 2026-05-07 14:07 | 35.74223 | 140.39517 | 1606 ft | 176 kts | 147° |
| 2026-05-07 14:07 | 35.73273 | 140.40544 | 2317 ft | 186 kts | 148° |
| 2026-05-07 14:07 | 35.72235 | 140.41516 | 2858 ft | 194 kts | 152° |
| 2026-05-07 14:08 | 35.71070 | 140.42642 | 2714 ft | 233 kts | 145° |
| 2026-05-07 14:08 | 35.69754 | 140.43900 | 2757 ft | 242 kts | 162° |
| 2026-05-07 14:08 | 35.68171 | 140.44464 | 3223 ft | 236 kts | 170° |
| 2026-05-07 14:08 | 35.66602 | 140.45137 | 3610 ft | 241 kts | 164° |
| 2026-05-07 14:09 | 35.65070 | 140.45971 | 4041 ft | 243 kts | 160° |
| 2026-05-07 14:09 | 35.63554 | 140.46926 | 4444 ft | 246 kts | 158° |
| 2026-05-07 14:09 | 35.62054 | 140.47950 | 4827 ft | 247 kts | 156° |
| 2026-05-07 14:09 | 35.60554 | 140.49011 | 5182 ft | 250 kts | 156° |
| 2026-05-07 14:10 | 35.59044 | 140.50094 | 5556 ft | 252 kts | 155° |
| 2026-05-07 14:10 | 35.57528 | 140.51185 | 5956 ft | 253 kts | 155° |
| 2026-05-07 14:10 | 35.56004 | 140.52279 | 6356 ft | 254 kts | 155° |
| 2026-05-07 14:10 | 35.54472 | 140.53371 | 6728 ft | 254 kts | 158° |
| 2026-05-07 14:11 | 35.52811 | 140.53889 | 7064 ft | 243 kts | 187° |
| 2026-05-07 14:11 | 35.51229 | 140.53356 | 7456 ft | 234 kts | 212° |
| 2026-05-07 14:11 | 35.49992 | 140.52094 | 7837 ft | 232 kts | 232° |
| 2026-05-07 14:11 | 35.49102 | 140.50438 | 8225 ft | 233 kts | 239° |
| 2026-05-07 14:12 | 35.48289 | 140.48712 | 8623 ft | 234 kts | 239° |
| 2026-05-07 14:12 | 35.47473 | 140.46977 | 9036 ft | 235 kts | 239° |
| 2026-05-07 14:12 | 35.46915 | 140.45799 | 9316 ft | 236 kts | 239° |
| 2026-05-07 14:12 | 35.46354 | 140.43906 | 9703 ft | 241 kts | 261° |
| 2026-05-07 14:13 | 35.46506 | 140.41850 | 10091 ft | 248 kts | 283° |
| 2026-05-07 14:13 | 35.47326 | 140.39981 | 10467 ft | 260 kts | 304° |
| 2026-05-07 14:13 | 35.48756 | 140.38544 | 10843 ft | 271 kts | 320° |
| 2026-05-07 14:13 | 35.50420 | 140.37348 | 11239 ft | 275 kts | 323° |
| 2026-05-07 14:14 | 35.52042 | 140.36134 | 11593 ft | 271 kts | 312° |
| 2026-05-07 14:14 | 35.53284 | 140.34434 | 11996 ft | 265 kts | 302° |
| 2026-05-07 14:14 | 35.54428 | 140.32646 | 12378 ft | 267 kts | 301° |
| 2026-05-07 14:14 | 35.55580 | 140.30839 | 12779 ft | 270 kts | 301° |
| 2026-05-07 14:15 | 35.56755 | 140.29001 | 12907 ft | 286 kts | 302° |
| 2026-05-07 14:15 | 35.58029 | 140.27020 | 13023 ft | 306 kts | 302° |
| 2026-05-07 14:15 | 35.59398 | 140.24909 | 13188 ft | 326 kts | 303° |
| 2026-05-07 14:16 | 35.59901 | 140.24137 | 13241 ft | 332 kts | 303° |
| 2026-05-07 14:16 | 35.61025 | 140.22422 | 13368 ft | 345 kts | 303° |
| 2026-05-07 14:16 | 35.62574 | 140.20064 | 13506 ft | 362 kts | 304° |
| 2026-05-07 14:16 | 35.64188 | 140.17612 | 13725 ft | 375 kts | 304° |
| 2026-05-07 14:17 | 35.65843 | 140.15110 | 14138 ft | 380 kts | 304° |
| 2026-05-07 14:17 | 35.67515 | 140.12583 | 14637 ft | 382 kts | 305° |
| 2026-05-07 14:17 | 35.69194 | 140.10036 | 15135 ft | 384 kts | 304° |
| 2026-05-07 14:17 | 35.70876 | 140.07465 | 15633 ft | 387 kts | 304° |
| 2026-05-07 14:18 | 35.72575 | 140.04879 | 16106 ft | 390 kts | 305° |
| 2026-05-07 14:18 | 35.74287 | 140.02279 | 16579 ft | 393 kts | 305° |
| 2026-05-07 14:18 | 35.76010 | 139.99662 | 17054 ft | 396 kts | 306° |
| 2026-05-07 14:18 | 35.77754 | 139.97012 | 17504 ft | 399 kts | 306° |
| 2026-05-07 14:19 | 35.79503 | 139.94348 | 17961 ft | 401 kts | 306° |
| 2026-05-07 14:19 | 35.81261 | 139.91664 | 18387 ft | 404 kts | 306° |
| 2026-05-07 14:19 | 35.83032 | 139.88958 | 18782 ft | 406 kts | 305° |
| 2026-05-07 14:19 | 35.84803 | 139.86240 | 19165 ft | 408 kts | 304° |
| 2026-05-07 14:20 | 35.86342 | 139.83321 | 19540 ft | 407 kts | 295° |
| 2026-05-07 14:20 | 35.87503 | 139.80147 | 19925 ft | 405 kts | 286° |
| 2026-05-07 14:20 | 35.88267 | 139.76805 | 20329 ft | 405 kts | 281° |
| 2026-05-07 14:20 | 35.88953 | 139.73426 | 20706 ft | 407 kts | 281° |
| 2026-05-07 14:21 | 35.89641 | 139.70026 | 21090 ft | 410 kts | 281° |
| 2026-05-07 14:21 | 35.90352 | 139.66611 | 21464 ft | 412 kts | 282° |
| 2026-05-07 14:21 | 35.91080 | 139.63187 | 21831 ft | 414 kts | 282° |
| 2026-05-07 14:21 | 35.91803 | 139.59737 | 22204 ft | 415 kts | 280° |
| 2026-05-07 14:22 | 35.92316 | 139.56231 | 22565 ft | 416 kts | 276° |
| 2026-05-07 14:22 | 35.92746 | 139.52695 | 22921 ft | 418 kts | 275° |
| 2026-05-07 14:22 | 35.93159 | 139.49148 | 23285 ft | 419 kts | 275° |
| 2026-05-07 14:22 | 35.93576 | 139.45576 | 23600 ft | 421 kts | 275° |
| 2026-05-07 14:23 | 35.93998 | 139.42001 | 23897 ft | 422 kts | 275° |
| 2026-05-07 14:23 | 35.94427 | 139.38407 | 24195 ft | 423 kts | 275° |
| 2026-05-07 14:23 | 35.94860 | 139.34814 | 24490 ft | 425 kts | 275° |
| 2026-05-07 14:23 | 35.95296 | 139.31200 | 24773 ft | 426 kts | 275° |
| 2026-05-07 14:24 | 35.95733 | 139.27578 | 25027 ft | 428 kts | 275° |
| 2026-05-07 14:24 | 35.96173 | 139.23937 | 25288 ft | 429 kts | 275° |
| 2026-05-07 14:24 | 35.96610 | 139.20292 | 25542 ft | 430 kts | 275° |
| 2026-05-07 14:24 | 35.97050 | 139.16631 | 25795 ft | 432 kts | 275° |
| 2026-05-07 14:25 | 35.97488 | 139.12964 | 26050 ft | 433 kts | 275° |
| 2026-05-07 14:25 | 35.97927 | 139.09280 | 26327 ft | 434 kts | 275° |
| 2026-05-07 14:25 | 35.98366 | 139.05588 | 26571 ft | 436 kts | 275° |
| 2026-05-07 14:25 | 35.98805 | 139.01883 | 26790 ft | 437 kts | 275° |
| 2026-05-07 14:26 | 35.99246 | 138.98155 | 27021 ft | 439 kts | 275° |
| 2026-05-07 14:26 | 35.99687 | 138.94418 | 27261 ft | 441 kts | 275° |
| 2026-05-07 14:26 | 36.00128 | 138.90671 | 27479 ft | 442 kts | 275° |
| 2026-05-07 14:26 | 36.00476 | 138.86908 | 27716 ft | 440 kts | 269° |
| 2026-05-07 14:27 | 36.00526 | 138.83128 | 27924 ft | 441 kts | 267° |
| 2026-05-07 14:27 | 36.00546 | 138.79335 | 28109 ft | 442 kts | 267° |
| 2026-05-07 14:27 | 36.00569 | 138.75498 | 28345 ft | 442 kts | 268° |
| 2026-05-07 14:27 | 36.00597 | 138.71697 | 28615 ft | 442 kts | 268° |
| 2026-05-07 14:28 | 36.00633 | 138.67913 | 28953 ft | 439 kts | 268° |
| 2026-05-07 14:28 | 36.00674 | 138.64173 | 29476 ft | 434 kts | 268° |
| 2026-05-07 14:28 | 36.00712 | 138.60436 | 29735 ft | 436 kts | 267° |
| 2026-05-07 14:28 | 36.00747 | 138.56686 | 29954 ft | 438 kts | 268° |
| 2026-05-07 14:29 | 36.00782 | 138.52942 | 30331 ft | 434 kts | 267° |
| 2026-05-07 14:29 | 36.00815 | 138.49223 | 30676 ft | 432 kts | 267° |
| 2026-05-07 14:29 | 36.00846 | 138.45520 | 30933 ft | 431 kts | 268° |
| 2026-05-07 14:29 | 36.00876 | 138.41812 | 31107 ft | 433 kts | 267° |
| 2026-05-07 14:30 | 36.00901 | 138.38090 | 31282 ft | 433 kts | 268° |
| 2026-05-07 14:30 | 36.00933 | 138.34389 | 31636 ft | 429 kts | 267° |
| 2026-05-07 14:30 | 36.00960 | 138.30764 | 31986 ft | 427 kts | 267° |
| 2026-05-07 14:30 | 36.00989 | 138.27096 | 32235 ft | 428 kts | 267° |
| 2026-05-07 14:31 | 36.01014 | 138.23422 | 32446 ft | 428 kts | 267° |
| 2026-05-07 14:31 | 36.01038 | 138.19739 | 32730 ft | 427 kts | 267° |
| 2026-05-07 14:31 | 36.01059 | 138.16081 | 33046 ft | 426 kts | 267° |
| 2026-05-07 14:31 | 36.01079 | 138.12426 | 33340 ft | 425 kts | 267° |
| 2026-05-07 14:32 | 36.01097 | 138.08774 | 33575 ft | 425 kts | 267° |
| 2026-05-07 14:32 | 36.01116 | 138.05130 | 33841 ft | 424 kts | 267° |
| 2026-05-07 14:32 | 36.01134 | 138.01439 | 34064 ft | 424 kts | 267° |
| 2026-05-07 14:32 | 36.01151 | 137.97849 | 34315 ft | 423 kts | 267° |
| 2026-05-07 14:33 | 36.01167 | 137.94168 | 34539 ft | 422 kts | 267° |
| 2026-05-07 14:33 | 36.01182 | 137.90547 | 34714 ft | 423 kts | 267° |
| 2026-05-07 14:33 | 36.01196 | 137.86905 | 34853 ft | 424 kts | 267° |
| 2026-05-07 14:33 | 36.01209 | 137.83265 | 35090 ft | 424 kts | 267° |
| 2026-05-07 14:34 | 36.01221 | 137.79622 | 35301 ft | 424 kts | 266° |
| 2026-05-07 14:34 | 36.01233 | 137.75977 | 35505 ft | 424 kts | 266° |
| 2026-05-07 14:34 | 36.01244 | 137.72338 | 35725 ft | 423 kts | 266° |
| 2026-05-07 14:34 | 36.01253 | 137.68714 | 35988 ft | 421 kts | 266° |
| 2026-05-07 14:35 | 36.01259 | 137.65081 | 35966 ft | 425 kts | 266° |
| 2026-05-07 14:35 | 36.01269 | 137.57787 | 35991 ft | 423 kts | 266° |
| 2026-05-07 14:36 | 36.01277 | 137.50553 | 35976 ft | 420 kts | 266° |
| 2026-05-07 14:36 | 36.01276 | 137.43359 | 35986 ft | 417 kts | 266° |
| 2026-05-07 14:37 | 36.01269 | 137.36209 | 35972 ft | 415 kts | 266° |
| 2026-05-07 14:37 | 36.01212 | 137.08492 | 35973 ft | 416 kts | 266° |
| 2026-05-07 14:38 | 36.01106 | 136.79523 | 35990 ft | 425 kts | 266° |
| 2026-05-07 14:38 | 36.00906 | 136.50304 | 35927 ft | 423 kts | 266° |
| 2026-05-07 14:39 | 36.00641 | 136.21562 | 35884 ft | 412 kts | 266° |
| 2026-05-07 14:39 | 36.00317 | 135.93470 | 35943 ft | 409 kts | 266° |
| 2026-05-07 14:40 | 35.99925 | 135.65025 | 35936 ft | 420 kts | 266° |
| 2026-05-07 14:40 | 35.99461 | 135.36092 | 35883 ft | 419 kts | 266° |
| 2026-05-07 14:41 | 35.98937 | 135.07694 | 35889 ft | 407 kts | 266° |
| 2026-05-07 14:41 | 35.98367 | 134.80069 | 35922 ft | 401 kts | 266° |
| 2026-05-07 14:42 | 35.97706 | 134.52160 | 35925 ft | 413 kts | 266° |
| 2026-05-07 14:42 | 35.96978 | 134.23545 | 35879 ft | 416 kts | 266° |
| 2026-05-07 14:43 | 35.96196 | 133.95319 | 35876 ft | 406 kts | 266° |
| 2026-05-07 14:43 | 35.95345 | 133.67845 | 35898 ft | 397 kts | 265° |
| 2026-05-07 14:44 | 35.94442 | 133.40333 | 35918 ft | 407 kts | 265° |
| 2026-05-07 14:44 | 35.93460 | 133.12269 | 35877 ft | 409 kts | 265° |
| 2026-05-07 14:45 | 35.92425 | 132.84564 | 35865 ft | 398 kts | 265° |
| 2026-05-07 14:45 | 35.91358 | 132.57683 | 35898 ft | 390 kts | 265° |
| 2026-05-07 14:46 | 35.90225 | 132.30694 | 35906 ft | 399 kts | 265° |
| 2026-05-07 14:46 | 35.89008 | 132.03105 | 35865 ft | 404 kts | 264° |
| 2026-05-07 14:47 | 35.87735 | 131.75681 | 35860 ft | 396 kts | 264° |
| 2026-05-07 14:47 | 35.86427 | 131.48857 | 35858 ft | 384 kts | 264° |
| 2026-05-07 14:48 | 35.85082 | 131.22472 | 35882 ft | 390 kts | 264° |
| 2026-05-07 14:48 | 35.83659 | 130.95636 | 35870 ft | 398 kts | 264° |
| 2026-05-07 14:49 | 35.82748 | 130.68258 | 35821 ft | 401 kts | 275° |
| 2026-05-07 14:49 | 35.85743 | 130.45961 | 35838 ft | 392 kts | 274° |
| 2026-05-07 14:50 | 35.87581 | 130.31161 | 35859 ft | 386 kts | 274° |
| 2026-05-07 14:50 | 35.88399 | 130.24586 | 35875 ft | 391 kts | 274° |
| 2026-05-07 14:51 | 35.89226 | 130.17900 | 35865 ft | 397 kts | 274° |
| 2026-05-07 14:51 | 35.90058 | 130.11163 | 35862 ft | 398 kts | 274° |
| 2026-05-07 14:52 | 35.90888 | 130.04407 | 35863 ft | 398 kts | 274° |
| 2026-05-07 14:52 | 35.91711 | 129.97659 | 35864 ft | 398 kts | 274° |
| 2026-05-07 14:53 | 35.92528 | 129.90917 | 35864 ft | 397 kts | 274° |
| 2026-05-07 14:53 | 35.93342 | 129.84200 | 35865 ft | 395 kts | 274° |
| 2026-05-07 14:54 | 35.94154 | 129.77498 | 35864 ft | 394 kts | 274° |
| 2026-05-07 14:54 | 35.94950 | 129.70815 | 35868 ft | 393 kts | 274° |
| 2026-05-07 14:55 | 35.95745 | 129.64141 | 35867 ft | 393 kts | 273° |
| 2026-05-07 14:55 | 35.96536 | 129.57477 | 35871 ft | 392 kts | 273° |
| 2026-05-07 14:56 | 35.97456 | 129.50845 | 35865 ft | 396 kts | 280° |
| 2026-05-07 14:56 | 35.99555 | 129.44444 | 35884 ft | 405 kts | 291° |
| 2026-05-07 14:57 | 36.02740 | 129.38604 | 35884 ft | 412 kts | 297° |
| 2026-05-07 14:57 | 36.06100 | 129.32871 | 35884 ft | 412 kts | 297° |
| 2026-05-07 14:58 | 36.09442 | 129.27132 | 35879 ft | 410 kts | 297° |
| 2026-05-07 14:58 | 36.12749 | 129.21405 | 35907 ft | 408 kts | 297° |
| 2026-05-07 14:59 | 36.16038 | 129.15679 | 35895 ft | 408 kts | 296° |
| 2026-05-07 14:59 | 36.19315 | 129.09968 | 35898 ft | 407 kts | 296° |
| 2026-05-07 15:00 | 36.22591 | 129.04247 | 35893 ft | 408 kts | 296° |
| 2026-05-07 15:00 | 36.25869 | 128.98517 | 35902 ft | 407 kts | 296° |
| 2026-05-07 15:01 | 36.29140 | 128.92789 | 35916 ft | 407 kts | 296° |
| 2026-05-07 15:01 | 36.32408 | 128.87059 | 35930 ft | 407 kts | 296° |
| 2026-05-07 15:02 | 36.35673 | 128.81331 | 35900 ft | 404 kts | 296° |
| 2026-05-07 15:02 | 36.37277 | 128.78510 | 35663 ft | 396 kts | 296° |
| 2026-05-07 15:02 | 36.38858 | 128.75722 | 35106 ft | 396 kts | 295° |
| 2026-05-07 15:03 | 36.40451 | 128.72904 | 34335 ft | 401 kts | 295° |
| 2026-05-07 15:03 | 36.42060 | 128.70049 | 33498 ft | 407 kts | 296° |
| 2026-05-07 15:03 | 36.43696 | 128.67151 | 32636 ft | 412 kts | 296° |
| 2026-05-07 15:03 | 36.45350 | 128.64226 | 31783 ft | 416 kts | 296° |
| 2026-05-07 15:04 | 36.47020 | 128.61274 | 30959 ft | 419 kts | 296° |
| 2026-05-07 15:04 | 36.48694 | 128.58315 | 30236 ft | 419 kts | 296° |
| 2026-05-07 15:04 | 36.50373 | 128.55347 | 29403 ft | 420 kts | 296° |
| 2026-05-07 15:04 | 36.52072 | 128.52333 | 28609 ft | 431 kts | 296° |
| 2026-05-07 15:05 | 36.53782 | 128.49294 | 28318 ft | 427 kts | 296° |
| 2026-05-07 15:05 | 36.55469 | 128.46297 | 28180 ft | 415 kts | 296° |
| 2026-05-07 15:05 | 36.57103 | 128.43415 | 28034 ft | 401 kts | 296° |
| 2026-05-07 15:05 | 36.58676 | 128.40631 | 27928 ft | 386 kts | 295° |
| 2026-05-07 15:06 | 36.60187 | 128.37946 | 27905 ft | 371 kts | 295° |
| 2026-05-07 15:06 | 36.61633 | 128.35370 | 27884 ft | 357 kts | 294° |
| 2026-05-07 15:06 | 36.63038 | 128.32859 | 27911 ft | 353 kts | 294° |
| 2026-05-07 15:06 | 36.64449 | 128.30340 | 27925 ft | 357 kts | 295° |
| 2026-05-07 15:07 | 36.65893 | 128.27798 | 27925 ft | 362 kts | 295° |
| 2026-05-07 15:07 | 36.67355 | 128.25239 | 27910 ft | 362 kts | 295° |
| 2026-05-07 15:07 | 36.68810 | 128.22699 | 27926 ft | 359 kts | 295° |
| 2026-05-07 15:07 | 36.70275 | 128.20131 | 27908 ft | 358 kts | 295° |
| 2026-05-07 15:08 | 36.71714 | 128.17601 | 27921 ft | 358 kts | 295° |
| 2026-05-07 15:08 | 36.73153 | 128.15074 | 27919 ft | 357 kts | 294° |
| 2026-05-07 15:08 | 36.74569 | 128.12578 | 27910 ft | 346 kts | 294° |
| 2026-05-07 15:08 | 36.75943 | 128.10166 | 27800 ft | 337 kts | 294° |
| 2026-05-07 15:09 | 36.77295 | 128.07783 | 27409 ft | 336 kts | 294° |
| 2026-05-07 15:09 | 36.78643 | 128.05395 | 26860 ft | 338 kts | 294° |
| 2026-05-07 15:09 | 36.80007 | 128.02976 | 26281 ft | 342 kts | 294° |
| 2026-05-07 15:09 | 36.81372 | 128.00571 | 26016 ft | 336 kts | 294° |
| 2026-05-07 15:10 | 36.82702 | 127.98231 | 25934 ft | 325 kts | 294° |
| 2026-05-07 15:10 | 36.83984 | 127.95971 | 25866 ft | 314 kts | 294° |
| 2026-05-07 15:10 | 36.85221 | 127.93783 | 25806 ft | 303 kts | 294° |
| 2026-05-07 15:10 | 36.86416 | 127.91665 | 25702 ft | 294 kts | 292° |
| 2026-05-07 15:11 | 36.87579 | 127.89589 | 25407 ft | 291 kts | 292° |
| 2026-05-07 15:11 | 36.88746 | 127.87504 | 25013 ft | 293 kts | 293° |
| 2026-05-07 15:11 | 36.89914 | 127.85430 | 24744 ft | 291 kts | 293° |
| 2026-05-07 15:11 | 36.91077 | 127.83359 | 24566 ft | 289 kts | 293° |
| 2026-05-07 15:12 | 36.92224 | 127.81320 | 24328 ft | 286 kts | 293° |
| 2026-05-07 15:12 | 36.93434 | 127.79325 | 23997 ft | 292 kts | 298° |
| 2026-05-07 15:12 | 36.94814 | 127.77445 | 23734 ft | 294 kts | 300° |
| 2026-05-07 15:12 | 36.96226 | 127.75604 | 23456 ft | 293 kts | 301° |
| 2026-05-07 15:13 | 36.97640 | 127.73778 | 23115 ft | 292 kts | 301° |
| 2026-05-07 15:13 | 36.99048 | 127.71965 | 22820 ft | 290 kts | 301° |
| 2026-05-07 15:13 | 37.00454 | 127.70155 | 22483 ft | 290 kts | 301° |
| 2026-05-07 15:13 | 37.01861 | 127.68345 | 22160 ft | 290 kts | 301° |
| 2026-05-07 15:14 | 37.03271 | 127.66532 | 21785 ft | 291 kts | 301° |
| 2026-05-07 15:14 | 37.04227 | 127.65303 | 21590 ft | 291 kts | 301° |
| 2026-05-07 15:14 | 37.07459 | 127.61147 | 21022 ft | 287 kts | 301° |
| 2026-05-07 15:15 | 37.08851 | 127.59350 | 20730 ft | 287 kts | 301° |
| 2026-05-07 15:15 | 37.10233 | 127.57562 | 20451 ft | 287 kts | 301° |
| 2026-05-07 15:15 | 37.11625 | 127.55756 | 20185 ft | 286 kts | 301° |
| 2026-05-07 15:15 | 37.13007 | 127.53960 | 19931 ft | 286 kts | 301° |
| 2026-05-07 15:16 | 37.14384 | 127.52165 | 19671 ft | 285 kts | 301° |
| 2026-05-07 15:16 | 37.15756 | 127.50371 | 19425 ft | 285 kts | 301° |
| 2026-05-07 15:16 | 37.17015 | 127.48513 | 19171 ft | 271 kts | 289° |
| 2026-05-07 15:16 | 37.17817 | 127.46422 | 18913 ft | 264 kts | 282° |
| 2026-05-07 15:17 | 37.18503 | 127.44288 | 18648 ft | 264 kts | 281° |
| 2026-05-07 15:17 | 37.19165 | 127.42150 | 18418 ft | 263 kts | 281° |
| 2026-05-07 15:17 | 37.19562 | 127.39976 | 18145 ft | 251 kts | 265° |
| 2026-05-07 15:17 | 37.19538 | 127.37810 | 17916 ft | 247 kts | 262° |
| 2026-05-07 15:18 | 37.19437 | 127.35663 | 17648 ft | 247 kts | 262° |
| 2026-05-07 15:18 | 37.19311 | 127.33526 | 17422 ft | 245 kts | 261° |
| 2026-05-07 15:18 | 37.19174 | 127.31395 | 17153 ft | 245 kts | 261° |
| 2026-05-07 15:18 | 37.19028 | 127.29263 | 16925 ft | 245 kts | 261° |
| 2026-05-07 15:19 | 37.18874 | 127.27148 | 16703 ft | 243 kts | 261° |
| 2026-05-07 15:19 | 37.18711 | 127.25040 | 16454 ft | 242 kts | 261° |
| 2026-05-07 15:19 | 37.18538 | 127.22936 | 16207 ft | 244 kts | 261° |
| 2026-05-07 15:19 | 37.18354 | 127.20791 | 15954 ft | 244 kts | 261° |
| 2026-05-07 15:20 | 37.18165 | 127.18679 | 15729 ft | 244 kts | 261° |
| 2026-05-07 15:20 | 37.17971 | 127.16567 | 15492 ft | 244 kts | 261° |
| 2026-05-07 15:20 | 37.17770 | 127.14456 | 15311 ft | 243 kts | 261° |
| 2026-05-07 15:20 | 37.17562 | 127.12354 | 15123 ft | 243 kts | 262° |
| 2026-05-07 15:21 | 37.17332 | 127.10194 | 14495 ft | 258 kts | 261° |
| 2026-05-07 15:21 | 37.17073 | 127.07917 | 13920 ft | 269 kts | 261° |
| 2026-05-07 15:21 | 37.16790 | 127.05551 | 13285 ft | 279 kts | 261° |
| 2026-05-07 15:21 | 37.16479 | 127.03109 | 12639 ft | 289 kts | 259° |
| 2026-05-07 15:22 | 37.15687 | 127.00749 | 11983 ft | 303 kts | 237° |
| 2026-05-07 15:22 | 37.14097 | 126.98922 | 11366 ft | 319 kts | 217° |
| 2026-05-07 15:22 | 37.12132 | 126.97562 | 10766 ft | 326 kts | 212° |
| 2026-05-07 15:22 | 37.10084 | 126.96271 | 10162 ft | 333 kts | 211° |
| 2026-05-07 15:23 | 37.07988 | 126.94960 | 9538 ft | 340 kts | 211° |
| 2026-05-07 15:23 | 37.05858 | 126.93625 | 8873 ft | 345 kts | 211° |
| 2026-05-07 15:23 | 37.03699 | 126.92261 | 8228 ft | 349 kts | 211° |
| 2026-05-07 15:23 | 37.01521 | 126.90873 | 7577 ft | 353 kts | 211° |
| 2026-05-07 15:24 | 36.99339 | 126.89470 | 7166 ft | 351 kts | 211° |
| 2026-05-07 15:24 | 36.97202 | 126.88090 | 7033 ft | 341 kts | 211° |
| 2026-05-07 15:24 | 36.95321 | 126.86440 | 6973 ft | 323 kts | 230° |
| 2026-05-07 15:24 | 36.94167 | 126.84151 | 6956 ft | 305 kts | 253° |
| 2026-05-07 15:25 | 36.93900 | 126.81610 | 6963 ft | 290 kts | 277° |
| 2026-05-07 15:25 | 36.94518 | 126.79281 | 6972 ft | 281 kts | 301° |
| 2026-05-07 15:25 | 36.95875 | 126.77590 | 6966 ft | 277 kts | 327° |
| 2026-05-07 15:25 | 36.97646 | 126.76695 | 6979 ft | 273 kts | 339° |
| 2026-05-07 15:26 | 36.98846 | 126.76256 | 6967 ft | 269 kts | 340° |
| 2026-05-07 15:26 | 37.01229 | 126.75445 | 6962 ft | 262 kts | 341° |
| 2026-05-07 15:26 | 37.02970 | 126.74865 | 6973 ft | 256 kts | 341° |
| 2026-05-07 15:26 | 37.04103 | 126.74492 | 6978 ft | 253 kts | 341° |
| 2026-05-07 15:27 | 37.06355 | 126.73757 | 6976 ft | 247 kts | 341° |
| 2026-05-07 15:27 | 37.08011 | 126.73218 | 6922 ft | 245 kts | 341° |
| 2026-05-07 15:27 | 37.09122 | 126.72857 | 6834 ft | 243 kts | 341° |
| 2026-05-07 15:27 | 37.10751 | 126.72323 | 6707 ft | 246 kts | 341° |
| 2026-05-07 15:28 | 37.12421 | 126.71772 | 6653 ft | 244 kts | 341° |
| 2026-05-07 15:28 | 37.14060 | 126.71228 | 6580 ft | 243 kts | 341° |
| 2026-05-07 15:28 | 37.15694 | 126.70683 | 6483 ft | 243 kts | 341° |
| 2026-05-07 15:28 | 37.17327 | 126.70133 | 6414 ft | 243 kts | 341° |
| 2026-05-07 15:29 | 37.18953 | 126.69582 | 6336 ft | 242 kts | 341° |
| 2026-05-07 15:29 | 37.19851 | 126.69277 | 6307 ft | 242 kts | 341° |
| 2026-05-07 15:29 | 37.20877 | 126.68929 | 6298 ft | 241 kts | 341° |
| 2026-05-07 15:29 | 37.22496 | 126.68376 | 6226 ft | 241 kts | 341° |
| 2026-05-07 15:30 | 37.24133 | 126.67810 | 5957 ft | 247 kts | 340° |
| 2026-05-07 15:30 | 37.25602 | 126.66769 | 5657 ft | 245 kts | 313° |
| 2026-05-07 15:30 | 37.26613 | 126.65044 | 5403 ft | 246 kts | 302° |
| 2026-05-07 15:30 | 37.27512 | 126.63187 | 5131 ft | 252 kts | 301° |
| 2026-05-07 15:31 | 37.28410 | 126.61266 | 4858 ft | 258 kts | 301° |
| 2026-05-07 15:31 | 37.29313 | 126.59300 | 4582 ft | 262 kts | 301° |
| 2026-05-07 15:31 | 37.30220 | 126.57290 | 4298 ft | 267 kts | 301° |
| 2026-05-07 15:31 | 37.31129 | 126.55244 | 4019 ft | 270 kts | 301° |
| 2026-05-07 15:32 | 37.31883 | 126.53063 | 3727 ft | 277 kts | 288° |
| 2026-05-07 15:32 | 37.32018 | 126.50619 | 3458 ft | 288 kts | 268° |
| 2026-05-07 15:32 | 37.31436 | 126.48170 | 3178 ft | 299 kts | 248° |
| 2026-05-07 15:32 | 37.30216 | 126.46004 | 2905 ft | 308 kts | 233° |
| 2026-05-07 15:33 | 37.28766 | 126.44007 | 2624 ft | 310 kts | 232° |
| 2026-05-07 15:33 | 37.27277 | 126.42196 | 3301 ft | 269 kts | 218° |
| 2026-05-07 15:33 | 37.25891 | 126.40957 | 5333 ft | 225 kts | 227° |
| 2026-05-07 15:33 | 37.24720 | 126.39603 | 5223 ft | 243 kts | 225° |
| 2026-05-07 15:34 | 37.23071 | 126.38517 | 4147 ft | 288 kts | 191° |
| 2026-05-07 15:34 | 37.21090 | 126.38821 | 3806 ft | 293 kts | 155° |
| 2026-05-07 15:34 | 37.19516 | 126.40393 | 3588 ft | 281 kts | 135° |
| 2026-05-07 15:34 | 37.18204 | 126.41886 | 4245 ft | 246 kts | 139° |
| 2026-05-07 15:35 | 37.16835 | 126.43343 | 3577 ft | 269 kts | 137° |
| 2026-05-07 15:35 | 37.15879 | 126.44377 | 3103 ft | 282 kts | 138° |